Hibbing, MN

4:24 AM CDT on July 25, 2014 (GMT -0500)
Chisholm-hibbing (KHIB) Elev 1352 ft | 47.39 °N, 92.84 °W | Change Station
Active Advisory: Areal Flood Warning

Current weather conditions updated 31 minutes ago

Overcast
Overcast
62 °F
Feels Like 62 °F
N
6
Wind Variable Wind from SSE

Today is forecast to be nearly the same temperature as yesterday. Showers ending by midday.

Today
High -- | Low -- °F
--% Chance of Precip.
Yesterday
High -- | Low -- °F
Precip. -- in
5:41 AM 8:54 PM
Waning Crescent, 2% visible
Pressure 29.85 in
Visibility 10.0 miles
Clouds Overcast 9000 ft
Dew Point 58 °F
Humidity 86%
Rainfall 0.00 in
Snow Depth Not available.
UV 0 out of 12
Pollen 5.20 out of 12
Air Quality Not available.
Flu Activity Not available.
METAR KHIB 250853Z AUTO 15005KT 10SM OVC090 17/14 A2985 RMK AO2 SLP106 60000 T01670144 56018

More Conditions Fewer Conditions

Pressure 29.85 in
Visibility 10.0 miles
Clouds Overcast 9000 ft
Dew Point 58 °F
Humidity 86%
Rainfall 0.00 in
Snow Depth Not available.
UV 0 out of 12
Pollen 5.20 out of 12
Air Quality Not available.
Flu Activity Not available.
METAR KHIB 250853Z AUTO 15005KT 10SM OVC090 17/14 A2985 RMK AO2 SLP106 60000 T01670144 56018

More Conditions Fewer Conditions

10-Day Weather Forecast

Almanac

Astronomy

Jul. 25, 2014 Rise Set
Actual Time 5:41 AM CDT 8:54 PM CDT
Civil Twilight 5:04 AM CDT 9:30 PM CDT
Nautical Twilight 4:15 AM CDT 10:18 PM CDT
Astronomical Twilight 3:14 AM CDT 11:18 PM CDT
Moon 4:43 AM CDT 7:47 PM CDT
Length of Visible Light 16h 26m
Length of Day
15h 12m
Tomorrow will be 2m 23s shorter.
Waning Crescent, 2% of the Moon is Illuminated
Today
Waning Crescent
Jul 26
New
Aug 3
First Quarter
Aug 10
Full
Aug 17
Last Quarter

Today's Extremes

State Highs State Lows

Community

WunderPhotos

Upload Photos

1,737,276 photos uploaded!

Nearby

Snow Depth

Station Depth Elevation
No new snow has been reported.

Earthquake Activity

City Distance Mag. Time & Date
No recent earthquake activity has been reported nearby.
Minimum magnitude displayed is 2.5.

Coastal Water Temperatures

Place Temperature
No Stations Reporting

Nearby Weather Stations

Station Location Temp. Dew Point Humidity Wind Precip. Elev Updated Type
RAWS HIBBING MN, Hibbing, MN 61 °F 59 °F 94% North  at  0 mph 0.00 in / hr 1350 ft 3:07 AM CDT MADIS
Leisure Lake,Mn, Makinen, MN 61.5 °F 59 °F 91% South  at  2.2 mph - / hr 1427 ft 4:17 AM CDT Normal

Show More Stations Show Fewer Stations